Aérodrome :
LOGIN :

S'inscrire | Disclaimer

   EN    FR    IT 

 










Légende :    VFR   VFR Marginal   IFR   IFR Intensif   IFR Très Intensif
Visi : 
Plafond : 
>= 8 km
>= 3000ft
5 à 8 km
1000 à 3000 ft
1500m à 5 km
500 à 1000 ft
800 à 1500m
200 à 500 ft
< 800m
< 200 ft
Symboles :   Orages  Brouillard  Fortes neiges  Fortes précipitations  Vent > 20 kt
SIGMETs :   Divers  Orages  Givrage  Turbulence  Onde Orograph.  Cendres Volcan.






- Altitude de l'aérodrome : 1300 ft
- Code IATA : LIG


LFBL - Limoges

DERNIER METAR :
  • 101200Z AUTO 16007KT 9999 -RA SCT040/// BKN049/// OVC056/// ///TCU 10/09 Q1012 TEMPO 4000 SHRA BKN015 FEW020CB

METARs EXPIRÉS :
  • 101130Z AUTO 16010KT 9999 -RA FEW005/// SCT037/// BKN047/// ///CB 10/09 Q1013 TEMPO 4000 -SHRA
  • 101100Z AUTO 16010KT 6000 RA FEW043/// OVC056/// ///CB 09/08 Q1013 BECMG NSW
  • 101030Z AUTO 18014KT 5000 RA BR SCT022/// BKN036/// BKN044/// ///CB 10/08 Q1013 BECMG NSW
  • 101000Z AUTO 20014KT 160V220 9999 BKN023/// OVC043/// ///CB 11/06 Q1013 TEMPO BKN025
  • 100930Z AUTO 18017KT 9999 BKN023 BKN040 OVC100 12/06 Q1013 BECMG SCT025TCU BKN050

TAF TAF LFBL
Valide du 10 à 12h jusqu'au 11 à 12h UTC


101100Z 1012/1112 20012KT 9999 SCT025TCU BKN035
TEMPO 1012/1022 4000 SHRA BKN015 FEW020CB
PROB30
TEMPO 1016/1020 VRB18G30KT 2000 -TSRA BKN013 SCT020CB
BECMG 1022/1024 4000 -RADZ OVC008
TEMPO 1101/1112 2000 OVC003
BECMG 1106/1108 28010KT
ATIS : +33 5 55 48 40 37



MET'MAP, la Météo Aéronautique d'un coup d'oeil ! - Copyright ORBIFLY Décembre 2007 - Disclaimer

ORBIFLY MET'MAP TEAM :

Programmation & Développement : Alexandra Zaïnal
Sur une idée originale de : Baudouin d'Aumeries
Assistance à la programmation : Marc-Olivier Méhu
Soutien technique & logistique : Manuel Goepfert

Contact : metmap@orbifly.com




SOURCES & CREDITS :

   NOAA